CheckWX is a tool to help pilots better visualize weather data.  It is not intended as a substitute for an official pre-flight weather briefing.

20:35:44 UTC

KCRE METAR
Grand Strand Airport
North Myrtle Beach, South Carolina, USA
Current

43 mins ago

KCRE 181953Z VRB05G15KT 10SM CLR 20/11 A3006 RMK AO1 SLP180 T02000106 $
Observed
Feb-18 @ 19:53 UTC
Wind
  • Variable at 5 KTS
  • Gusting to 15 KTS
Visibility
10 SM
Flight Rules
VFR
Cloud Levels
  • Clear skies
Temperature
20°C / 68°F
Dewpoint
11°C / 52°F
Humidity
56%
Altimeter
30.06" Hg
Pressure
1018 hPa
Previous

2 hours ago

KCRE 181853Z 27009KT 10SM CLR 20/11 A3005 RMK AO1 SLP177 T02000111 $
Observed
Feb-18 @ 18:53 UTC
Wind
  • 270° at 9 KTS
Visibility
10 SM
Flight Rules
VFR
Cloud Levels
  • Clear skies
Temperature
20°C / 68°F
Dewpoint
11°C / 52°F
Humidity
56%
Altimeter
30.05" Hg
Pressure
1017.7 hPa
Previous

3 hours ago

KCRE 181753Z 30007G15KT 10SM FEW047 18/12 A3005 RMK AO1 SLP176 60000 T01830117 10183 20100 50007 $
Observed
Feb-18 @ 17:53 UTC
Wind
  • 300° at 7 KTS
  • Gusting to 15 KTS
Visibility
10 SM
Flight Rules
VFR
Cloud Levels
  • Few at 4,700' AGL
Temperature
18°C / 64°F
Dewpoint
12°C / 54°F
Humidity
68%
Altimeter
30.05" Hg
Pressure
1017.6 hPa